Time;durP1;ratioP1;P1;durP2;ratioP2;P2;SDS_P1;SDS_P2;PMS_P1;PMS_P2;Temp;Humidity;BMP_temperature;BMP_pressure;BME280_temperature;BME280_humidity;BME280_pressure;Samples;Min_cycle;Max_cycle;Signal;HPM_P1;HPM_P2
2022/07/03 00:02:39;;;;;;;;;;;;;;;17.51;46.2002;101812.6;;;;-84
2022/07/03 00:07:44;;;;;;;;;;;;;;;17.42;46.22559;101810.8;;;;-84
2022/07/03 00:12:41;;;;;;;;;;;;;;;17.4;46.38184;101803;;;;-82
2022/07/03 00:14:07;;;;;;;2.8;1.5;;;;;;;;;;;;;-81
2022/07/03 00:17:39;;;;;;;;;;;;;;;17.35;46.32031;101807.2;;;;-83
2022/07/03 00:22:57;;;;;;;;;;;;;;;17.31;46.37305;101809.5;;;;-82
2022/07/03 00:27:47;;;;;;;;;;;;;;;17.31;46.42969;101810.7;;;;-83
2022/07/03 00:32:52;;;;;;;;;;;;;;;17.33;46.43262;101805.4;;;;-83
2022/07/03 00:37:38;;;;;;;;;;;;;;;17.33;47.06836;101800.7;;;;-82
2022/07/03 00:42:43;;;;;;;;;;;;;;;17.36;46.63965;101805.4;;;;-83
2022/07/03 00:44:12;;;;;;;2.6;1.3;;;;;;;;;;;;;-82
2022/07/03 00:47:43;;;;;;;;;;;;;;;17.38;46.91406;101798.7;;;;-82
2022/07/03 00:52:42;;;;;;;;;;;;;;;17.39;46.98438;101798.2;;;;-83
2022/07/03 00:57:39;;;;;;;;;;;;;;;17.42;47.15723;101803.6;;;;-82
2022/07/03 01:02:45;;;;;;;;;;;;;;;17.43;46.87402;101802.8;;;;-82
2022/07/03 01:07:47;;;;;;;;;;;;;;;17.43;47.16895;101806;;;;-83
2022/07/03 01:12:46;;;;;;;;;;;;;;;17.45;47.53418;101790.9;;;;-82
2022/07/03 01:14:18;;;;;;;2.4;1.5;;;;;;;;;;;;;-83
2022/07/03 01:17:45;;;;;;;;;;;;;;;17.46;47.09277;101796.3;;;;-83
2022/07/03 01:22:39;;;;;;;;;;;;;;;17.47;46.96973;101802.4;;;;-82
2022/07/03 01:27:47;;;;;;;;;;;;;;;17.48;47.02637;101798.7;;;;-82
2022/07/03 01:32:45;;;;;;;;;;;;;;;17.49;47.1748;101794.3;;;;-83
2022/07/03 01:37:42;;;;;;;;;;;;;;;17.49;47.48242;101794.7;;;;-82
2022/07/03 01:42:42;;;;;;;;;;;;;;;17.52;47.16797;101794.3;;;;-83
2022/07/03 01:44:16;;;;;;;2.5;1.5;;;;;;;;;;;;;-83
2022/07/03 01:47:42;;;;;;;;;;;;;;;17.54;47.3623;101788.7;;;;-82
2022/07/03 01:52:39;;;;;;;;;;;;;;;17.54;47.47656;101787.2;;;;-83
2022/07/03 01:57:43;;;;;;;;;;;;;;;17.53;47.42969;101778.4;;;;-83
2022/07/03 02:02:43;;;;;;;;;;;;;;;17.52;47.42871;101777.1;;;;-83
2022/07/03 02:07:45;;;;;;;;;;;;;;;17.51;47.39258;101768.7;;;;-81
2022/07/03 02:12:42;;;;;;;;;;;;;;;17.49;47.50488;101770.6;;;;-82
2022/07/03 02:14:21;;;;;;;3.4;1.4;;;;;;;;;;;;;-84
2022/07/03 02:17:42;;;;;;;;;;;;;;;17.48;47.65137;101769.1;;;;-83
2022/07/03 02:22:45;;;;;;;;;;;;;;;17.46;47.89844;101769;;;;-81
2022/07/03 02:27:45;;;;;;;;;;;;;;;17.46;48.03516;101763.8;;;;-84
2022/07/03 02:32:47;;;;;;;;;;;;;;;17.47;47.95605;101753.4;;;;-83
2022/07/03 02:37:49;;;;;;;;;;;;;;;17.46;47.81934;101758.4;;;;-83
2022/07/03 02:44:31;;;;;;;2.9;1.4;;;;;;;;;;;;;-83
2022/07/03 02:47:41;;;;;;;;;;;;;;;17.46;48.58008;101755.2;;;;-83
2022/07/03 02:52:54;;;;;;;;;;;;;;;17.46;48.12598;101765.1;;;;-82
2022/07/03 02:57:43;;;;;;;;;;;;;;;17.47;48.16211;101765.7;;;;-82
2022/07/03 03:02:56;;;;;;;;;;;;;;;17.47;48.2168;101761.3;;;;-82
2022/07/03 03:07:48;;;;;;;;;;;;;;;17.44;48.39648;101762.8;;;;-82
2022/07/03 03:12:40;;;;;;;;;;;;;;;17.41;48.2002;101759.1;;;;-81
2022/07/03 03:14:23;;;;;;;3.5;1.3;;;;;;;;;;;;;-84
2022/07/03 03:17:46;;;;;;;;;;;;;;;17.38;48.44629;101763.2;;;;-82
2022/07/03 03:22:44;;;;;;;;;;;;;;;17.38;48.46875;101765.3;;;;-81
2022/07/03 03:27:39;;;;;;;;;;;;;;;17.35;48.91895;101757.1;;;;-82
2022/07/03 03:32:40;;;;;;;;;;;;;;;17.34;48.60059;101757.1;;;;-81
2022/07/03 03:37:42;;;;;;;;;;;;;;;17.35;48.81738;101755.8;;;;-84
2022/07/03 03:42:43;;;;;;;;;;;;;;;17.31;49.10742;101760.2;;;;-83
2022/07/03 03:44:24;;;;;;;2.5;1.3;;;;;;;;;;;;;-84
2022/07/03 03:47:41;;;;;;;;;;;;;;;17.28;49.08105;101756.8;;;;-82
2022/07/03 03:52:39;;;;;;;;;;;;;;;17.25;49.45215;101759.2;;;;-83
2022/07/03 03:57:39;;;;;;;;;;;;;;;17.2;49.59473;101761.1;;;;-81
2022/07/03 04:02:38;;;;;;;;;;;;;;;17.16;49.82813;101758.7;;;;-82
2022/07/03 04:07:39;;;;;;;;;;;;;;;17.1;50.03711;101759.3;;;;-83
2022/07/03 04:12:41;;;;;;;;;;;;;;;17.07;50.31641;101760.6;;;;-83
2022/07/03 04:14:23;;;;;;;2.6;1.3;;;;;;;;;;;;;-82
2022/07/03 04:17:41;;;;;;;;;;;;;;;17.01;50.58105;101755.1;;;;-84
2022/07/03 04:22:39;;;;;;;;;;;;;;;16.96;50.72266;101763.1;;;;-82
2022/07/03 04:27:41;;;;;;;;;;;;;;;16.93;50.88965;101758.7;;;;-83
2022/07/03 04:32:39;;;;;;;;;;;;;;;16.91;51.12402;101766.1;;;;-81
2022/07/03 04:37:40;;;;;;;;;;;;;;;16.89;51.36133;101767.1;;;;-85
2022/07/03 04:42:43;;;;;;;;;;;;;;;16.89;51.7334;101776.9;;;;-82
2022/07/03 04:44:25;;;;;;;2.6;1.3;;;;;;;;;;;;;-82
2022/07/03 04:47:39;;;;;;;;;;;;;;;16.92;52.20117;101777.5;;;;-83
2022/07/03 04:52:46;;;;;;;;;;;;;;;16.96;51.64063;101777.4;;;;-81
2022/07/03 04:57:38;;;;;;;;;;;;;;;17;51.83789;101774.4;;;;-80
2022/07/03 05:02:39;;;;;;;;;;;;;;;17.03;51.81836;101774.6;;;;-82
2022/07/03 05:07:45;;;;;;;;;;;;;;;17.06;51.96875;101777.2;;;;-85
2022/07/03 05:12:38;;;;;;;;;;;;;;;17.08;52.0957;101785.5;;;;-83
2022/07/03 05:14:30;;;;;;;2.8;1.1;;;;;;;;;;;;;-82
2022/07/03 05:17:38;;;;;;;;;;;;;;;17.1;52.56348;101788.1;;;;-82
2022/07/03 05:22:44;;;;;;;;;;;;;;;17.16;52.80762;101786.1;;;;-83
2022/07/03 05:27:38;;;;;;;;;;;;;;;17.36;52.99023;101794.7;;;;-82
2022/07/03 05:32:38;;;;;;;;;;;;;;;17.91;52.43164;101788.1;;;;-82
2022/07/03 05:37:38;;;;;;;;;;;;;;;18.31;51.70703;101789.1;;;;-84
2022/07/03 05:42:44;;;;;;;;;;;;;;;18.74;52.16602;101789.9;;;;-83
2022/07/03 05:44:30;;;;;;;3.8;1.2;;;;;;;;;;;;;-81
2022/07/03 05:47:46;;;;;;;;;;;;;;;19.31;51.18555;101786.9;;;;-82
2022/07/03 05:52:39;;;;;;;;;;;;;;;19.61;50.82129;101786.4;;;;-82
2022/07/03 05:57:44;;;;;;;;;;;;;;;19.76;50.9873;101789.7;;;;-84
2022/07/03 06:02:39;;;;;;;;;;;;;;;19.85;51.27051;101788.1;;;;-81
2022/07/03 06:07:39;;;;;;;;;;;;;;;20.28;51.05762;101779.9;;;;-82
2022/07/03 06:12:38;;;;;;;;;;;;;;;20.98;49.96094;101778.2;;;;-82
2022/07/03 06:14:31;;;;;;;5.7;1.2;;;;;;;;;;;;;-81
2022/07/03 06:17:39;;;;;;;;;;;;;;;21.69;48.84961;101786.3;;;;-83
2022/07/03 06:22:38;;;;;;;;;;;;;;;22.35;47.72852;101787.3;;;;-82
2022/07/03 06:27:42;;;;;;;;;;;;;;;22.9;47.14355;101788.5;;;;-82
2022/07/03 06:32:39;;;;;;;;;;;;;;;23.37;46.62891;101791.8;;;;-82
2022/07/03 06:37:39;;;;;;;;;;;;;;;23.65;46.18555;101791.4;;;;-81
2022/07/03 06:42:38;;;;;;;;;;;;;;;23.91;45.84473;101794.3;;;;-82
2022/07/03 06:44:34;;;;;;;3;1.1;;;;;;;;;;;;;-84
2022/07/03 06:47:40;;;;;;;;;;;;;;;24.12;45.57617;101802.4;;;;-84
2022/07/03 06:52:40;;;;;;;;;;;;;;;24.16;45.60449;101811.6;;;;-83
2022/07/03 06:57:40;;;;;;;;;;;;;;;24.25;45.42871;101805.6;;;;-83
2022/07/03 07:02:51;;;;;;;;;;;;;;;;;;;;;
2022/07/03 07:07:48;;;;;;;;;;;;;;;24.86;44.64746;101807.3;;;;-82
2022/07/03 07:12:39;;;;;;;;;;;;;;;25.22;43.99023;101799.3;;;;-82
2022/07/03 07:14:40;;;;;;;3.9;1.1;;;;;;;;;;;;;-83
2022/07/03 07:17:39;;;;;;;;;;;;;;;25.25;43.71484;101797;;;;-82
2022/07/03 07:22:39;;;;;;;;;;;;;;;25.02;44.14355;101796.4;;;;-82
2022/07/03 07:27:40;;;;;;;;;;;;;;;25.22;44.05957;101796.9;;;;-82
2022/07/03 07:32:43;;;;;;;;;;;;;;;25.7;43.37598;101802.4;;;;-84
2022/07/03 07:37:39;;;;;;;;;;;;;;;26.1;42.38379;101807.2;;;;-84
2022/07/03 07:42:42;;;;;;;;;;;;;;;25.99;42.31445;101805.9;;;;-82
2022/07/03 07:44:41;;;;;;;3.6;1.1;;;;;;;;;;;;;-83
2022/07/03 07:47:49;;;;;;;;;;;;;;;25.76;42.7334;101818.9;;;;-83
2022/07/03 07:52:39;;;;;;;;;;;;;;;25.7;42.99414;101824.4;;;;-85
2022/07/03 07:57:45;;;;;;;;;;;;;;;25.74;42.87012;101829;;;;-83
2022/07/03 08:07:42;;;;;;;;;;;;;;;25.69;42.49512;101841.4;;;;-81
2022/07/03 08:12:45;;;;;;;;;;;;;;;25.52;42.72266;101841.3;;;;-84
2022/07/03 08:14:54;;;;;;;4.5;1.1;;;;;;;;;;;;;-86
2022/07/03 08:17:47;;;;;;;;;;;;;;;25.37;43.05566;101850;;;;-83
2022/07/03 08:22:43;;;;;;;;;;;;;;;25.27;43.13867;101851.9;;;;-84
2022/07/03 08:27:39;;;;;;;;;;;;;;;25.22;43.27246;101852.3;;;;-83
2022/07/03 08:32:39;;;;;;;;;;;;;;;25.23;44.25684;101851.1;;;;-84
2022/07/03 08:37:43;;;;;;;;;;;;;;;25.54;44.02148;101845.7;;;;-85
2022/07/03 08:45:05;;;;;;;4.8;1.3;;;;;;;;;;;;;-85
2022/07/03 08:47:52;;;;;;;;;;;;;;;26.39;42.72266;101858.1;;;;-83
2022/07/03 08:52:50;;;;;;;;;;;;;;;26.82;41.97559;101857.6;;;;-84
2022/07/03 08:57:43;;;;;;;;;;;;;;;27.25;40.89844;101863.8;;;;-82
2022/07/03 09:02:43;;;;;;;;;;;;;;;27.48;40.05957;101868.7;;;;-86
2022/07/03 09:07:46;;;;;;;;;;;;;;;27.55;39.79688;101864.1;;;;-89
2022/07/03 09:14:58;;;;;;;3.2;1.1;;;;;;;;;;;;;-82
2022/07/03 09:17:39;;;;;;;;;;;;;;;27.64;39.51563;101868.5;;;;-85
2022/07/03 09:22:40;;;;;;;;;;;;;;;27.77;39.47949;101866.9;;;;-85
2022/07/03 09:27:40;;;;;;;;;;;;;;;27.98;39.13672;101860.3;;;;-84
2022/07/03 09:32:45;;;;;;;;;;;;;;;28.18;38.88574;101863.5;;;;-86
2022/07/03 09:37:39;;;;;;;;;;;;;;;28.28;38.56738;101870.8;;;;-82
2022/07/03 09:42:38;;;;;;;;;;;;;;;28.38;38.59961;101870.9;;;;-78
2022/07/03 09:44:58;;;;;;;2.9;0.9;;;;;;;;;;;;;-78
2022/07/03 09:47:38;;;;;;;;;;;;;;;28.48;38.31641;101872.4;;;;-80
2022/07/03 09:52:39;;;;;;;;;;;;;;;28.68;38.39258;101872.4;;;;-78
2022/07/03 09:57:39;;;;;;;;;;;;;;;28.98;38.25391;101861.3;;;;-78
2022/07/03 10:02:38;;;;;;;;;;;;;;;29.26;37.85645;101863.6;;;;-78
2022/07/03 10:07:54;;;;;;;;;;;;;;;29.44;36.94727;101870.4;;;;-78
2022/07/03 10:12:38;;;;;;;;;;;;;;;29.49;36.77637;101873.7;;;;-79
2022/07/03 10:15:01;;;;;;;2.5;0.9;;;;;;;;;;;;;-78
2022/07/03 10:17:50;;;;;;;;;;;;;;;29.7;36.88672;101875;;;;-79
2022/07/03 10:22:39;;;;;;;;;;;;;;;30.03;36.67969;101867.8;;;;-78
2022/07/03 10:27:39;;;;;;;;;;;;;;;30.46;36.20996;101872.3;;;;-79
2022/07/03 10:32:41;;;;;;;;;;;;;;;30.71;35.47949;101874.2;;;;-79
2022/07/03 10:37:45;;;;;;;;;;;;;;;30.76;34.83691;101876.3;;;;-78
2022/07/03 10:45:15;;;;;;;1.2;0.6;;;;;;;;;;;;;-79
2022/07/03 10:47:46;;;;;;;;;;;;;;;30.47;34.70898;101881.3;;;;-77
2022/07/03 10:52:38;;;;;;;;;;;;;;;30.22;34.88965;101885.4;;;;-79
2022/07/03 10:57:38;;;;;;;;;;;;;;;29.92;35.42969;101894.3;;;;-79
2022/07/03 11:02:40;;;;;;;;;;;;;;;29.57;35.89355;101898.9;;;;-79
2022/07/03 11:07:38;;;;;;;;;;;;;;;29.26;36.33691;101901.1;;;;-77
2022/07/03 11:12:49;;;;;;;;;;;;;;;29.06;36.69531;101902.2;;;;-77
2022/07/03 11:15:19;;;;;;;1.7;0.8;;;;;;;;;;;;;-79
2022/07/03 11:17:38;;;;;;;;;;;;;;;28.97;36.83984;101901.5;;;;-78
2022/07/03 11:22:52;;;;;;;;;;;;;;;29.08;36.96484;101890.1;;;;-79
2022/07/03 11:27:41;;;;;;;;;;;;;;;29.35;36.83398;101887.9;;;;-79
2022/07/03 11:32:51;;;;;;;;;;;;;;;29.63;36.6123;101880.2;;;;-78
2022/07/03 11:37:39;;;;;;;;;;;;;;;29.73;36.2334;101880.5;;;;-79
2022/07/03 11:42:46;;;;;;;;;;;;;;;29.81;36.33398;101875.6;;;;-79
2022/07/03 11:45:13;;;;;;;1.9;0.7;;;;;;;;;;;;;-79
2022/07/03 11:47:43;;;;;;;;;;;;;;;29.94;36.35645;101872.6;;;;-79
2022/07/03 11:52:41;;;;;;;;;;;;;;;30;36.25586;101873.6;;;;-78
2022/07/03 11:57:41;;;;;;;;;;;;;;;29.94;35.81738;101868;;;;-79
2022/07/03 12:02:48;;;;;;;;;;;;;;;29.82;35.78418;101882.8;;;;-77
2022/07/03 12:07:41;;;;;;;;;;;;;;;29.73;35.73047;101881;;;;-78
2022/07/03 12:12:40;;;;;;;;;;;;;;;29.74;36.03516;101886.9;;;;-78
2022/07/03 12:15:17;;;;;;;1.5;0.7;;;;;;;;;;;;;-78
2022/07/03 12:17:39;;;;;;;;;;;;;;;29.77;35.95605;101890.7;;;;-78
2022/07/03 12:22:41;;;;;;;;;;;;;;;29.84;36.03223;101893.1;;;;-79
2022/07/03 12:27:41;;;;;;;;;;;;;;;30.02;35.91699;101893.4;;;;-79
2022/07/03 12:32:39;;;;;;;;;;;;;;;30.18;35.91797;101893.8;;;;-80
2022/07/03 12:37:44;;;;;;;;;;;;;;;30.38;35.7002;101896.4;;;;-75
2022/07/03 12:42:45;;;;;;;;;;;;;;;30.54;35.58301;101897.4;;;;-76
2022/07/03 12:45:22;;;;;;;1.5;0.6;;;;;;;;;;;;;-79
2022/07/03 12:47:38;;;;;;;;;;;;;;;30.64;35.08691;101903.3;;;;-78
2022/07/03 12:52:48;;;;;;;;;;;;;;;30.74;35;101900.8;;;;-78
2022/07/03 13:02:39;;;;;;;;;;;;;;;30.76;34.73145;101898.6;;;;-78
2022/07/03 13:07:43;;;;;;;;;;;;;;;30.83;35.07813;101894.8;;;;-78
2022/07/03 13:12:38;;;;;;;;;;;;;;;31.02;35.11523;101899.1;;;;-78
2022/07/03 13:15:28;;;;;;;2.5;0.5;;;;;;;;;;;;;-77
2022/07/03 13:17:49;;;;;;;;;;;;;;;31.2;34.95313;101894.9;;;;-77
2022/07/03 13:22:38;;;;;;;;;;;;;;;31.32;34.82129;101900;;;;-77
2022/07/03 13:27:40;;;;;;;;;;;;;;;31.54;34.61523;101898.5;;;;-77
2022/07/03 13:32:41;;;;;;;;;;;;;;;31.74;34.06543;101906.9;;;;-78
2022/07/03 13:37:38;;;;;;;;;;;;;;;31.73;33.78223;101900.8;;;;-78
2022/07/03 13:42:38;;;;;;;;;;;;;;;31.69;33.87305;101902.3;;;;-79
2022/07/03 13:45:31;;;;;;;2;0.6;;;;;;;;;;;;;-79
2022/07/03 13:47:40;;;;;;;;;;;;;;;31.73;33.89941;101906.3;;;;-75
2022/07/03 13:52:38;;;;;;;;;;;;;;;31.77;33.63184;101904;;;;-78
2022/07/03 13:57:43;;;;;;;;;;;;;;;31.6;33.36035;101913.4;;;;-78
2022/07/03 14:02:39;;;;;;;;;;;;;;;31.31;33.31641;101911.3;;;;-79
2022/07/03 14:07:38;;;;;;;;;;;;;;;31.05;33.60352;101915;;;;-77
2022/07/03 14:12:38;;;;;;;;;;;;;;;30.91;33.82715;101927.2;;;;-78
2022/07/03 14:15:37;;;;;;;1.9;0.6;;;;;;;;;;;;;-78
2022/07/03 14:17:38;;;;;;;;;;;;;;;30.82;34.17188;101934.9;;;;-77
2022/07/03 14:22:38;;;;;;;;;;;;;;;30.59;34.16699;101941.1;;;;-78
2022/07/03 14:32:38;;;;;;;;;;;;;;;30.08;34.82031;101952.7;;;;-78
2022/07/03 14:37:38;;;;;;;;;;;;;;;29.77;35.00684;101957.6;;;;-78
2022/07/03 14:42:38;;;;;;;;;;;;;;;29.49;35.37207;101960.7;;;;-77
2022/07/03 14:45:40;;;;;;;1.4;0.6;;;;;;;;;;;;;-78
2022/07/03 14:47:38;;;;;;;;;;;;;;;29.26;35.70508;101964.4;;;;-78
2022/07/03 14:52:38;;;;;;;;;;;;;;;29.02;35.91992;101965.9;;;;-78
2022/07/03 14:57:42;;;;;;;;;;;;;;;28.85;36.18652;101966.8;;;;-77
2022/07/03 15:02:46;;;;;;;;;;;;;;;28.78;36.29883;101963.2;;;;-77
2022/07/03 15:07:41;;;;;;;;;;;;;;;28.8;36.3457;101966.2;;;;-78
2022/07/03 15:12:40;;;;;;;;;;;;;;;28.8;36.36914;101964.6;;;;-78
2022/07/03 15:15:46;;;;;;;2.6;0.8;;;;;;;;;;;;;-78
2022/07/03 15:17:41;;;;;;;;;;;;;;;28.74;36.37695;101964.5;;;;-76
2022/07/03 15:22:42;;;;;;;;;;;;;;;28.66;36.46387;101967.8;;;;-79
2022/07/03 15:27:39;;;;;;;;;;;;;;;28.63;36.65918;101959.2;;;;-78
2022/07/03 15:32:38;;;;;;;;;;;;;;;28.55;36.80469;101956.3;;;;-77
2022/07/03 15:37:54;;;;;;;;;;;;;;;28.5;36.89355;101955;;;;-77
2022/07/03 15:42:47;;;;;;;;;;;;;;;28.49;36.69531;101951.1;;;;-78
2022/07/03 15:45:57;;;;;;;2;1.1;;;;;;;;;;;;;-78
2022/07/03 15:47:45;;;;;;;;;;;;;;;28.4;36.52441;101952.9;;;;-78
2022/07/03 15:52:40;;;;;;;;;;;;;;;28.29;36.49219;101952.8;;;;-80
2022/07/03 15:57:50;;;;;;;;;;;;;;;28.23;36.69727;101959.7;;;;-76
2022/07/03 16:02:43;;;;;;;;;;;;;;;28.21;36.67285;101962.6;;;;-77
2022/07/03 16:07:39;;;;;;;;;;;;;;;28.25;36.72266;101963.7;;;;-78
2022/07/03 16:12:38;;;;;;;;;;;;;;;28.28;36.52637;101961.4;;;;-77
2022/07/03 16:15:53;;;;;;;2.2;1;;;;;;;;;;;;;-77
2022/07/03 16:17:39;;;;;;;;;;;;;;;28.29;36.59766;101966.6;;;;-76
2022/07/03 16:22:39;;;;;;;;;;;;;;;28.31;36.63379;101968.3;;;;-78
2022/07/03 16:27:38;;;;;;;;;;;;;;;28.34;36.60156;101968;;;;-78
2022/07/03 16:32:42;;;;;;;;;;;;;;;28.32;36.50684;101963.8;;;;-78
2022/07/03 16:37:43;;;;;;;;;;;;;;;28.24;36.65234;101967.5;;;;-83
2022/07/03 16:42:39;;;;;;;;;;;;;;;28.08;36.70801;101964.8;;;;-78
2022/07/03 16:45:56;;;;;;;4.5;2.1;;;;;;;;;;;;;-78
2022/07/03 16:47:41;;;;;;;;;;;;;;;27.95;36.97754;101967.5;;;;-78
2022/07/03 16:52:39;;;;;;;;;;;;;;;27.87;37.01855;101966.5;;;;-77
2022/07/03 16:57:39;;;;;;;;;;;;;;;27.78;37.15039;101966.7;;;;-78
2022/07/03 17:02:39;;;;;;;;;;;;;;;27.69;37.15527;101971.1;;;;-78
2022/07/03 17:07:38;;;;;;;;;;;;;;;27.54;37.25977;101967.9;;;;-77
2022/07/03 17:12:38;;;;;;;;;;;;;;;27.39;37.43262;101972.8;;;;-80
2022/07/03 17:16:04;;;;;;;3.2;1.3;;;;;;;;;;;;;-80
2022/07/03 17:17:42;;;;;;;;;;;;;;;27.26;37.46875;101969.5;;;;-80
2022/07/03 17:22:40;;;;;;;;;;;;;;;27.09;37.48828;101970.2;;;;-79
2022/07/03 17:27:38;;;;;;;;;;;;;;;26.94;37.76758;101972.7;;;;-78
2022/07/03 17:32:40;;;;;;;;;;;;;;;26.76;37.89258;101978.3;;;;-78
2022/07/03 17:37:40;;;;;;;;;;;;;;;26.63;38.27637;101973.7;;;;-78
2022/07/03 17:42:40;;;;;;;;;;;;;;;26.5;38.2998;101978.9;;;;-79
2022/07/03 17:46:04;;;;;;;2.7;1.1;;;;;;;;;;;;;-77
2022/07/03 17:47:38;;;;;;;;;;;;;;;26.34;38.60059;101987.1;;;;-78
2022/07/03 17:52:38;;;;;;;;;;;;;;;26.19;38.67969;101988.6;;;;-78
2022/07/03 17:57:40;;;;;;;;;;;;;;;26.05;38.83105;101989.9;;;;-77
2022/07/03 18:02:39;;;;;;;;;;;;;;;25.88;38.98926;101986.5;;;;-78
2022/07/03 18:07:44;;;;;;;;;;;;;;;25.71;39.26465;101980.4;;;;-79
2022/07/03 18:12:48;;;;;;;;;;;;;;;25.54;39.35449;101981.6;;;;-79
2022/07/03 18:16:12;;;;;;;2.7;0.9;;;;;;;;;;;;;-79
2022/07/03 18:17:41;;;;;;;;;;;;;;;25.37;39.44336;101989.1;;;;-79
2022/07/03 18:22:40;;;;;;;;;;;;;;;25.21;39.5918;101992.4;;;;-79
2022/07/03 18:27:42;;;;;;;;;;;;;;;25.03;39.85352;101996.5;;;;-79
2022/07/03 18:32:39;;;;;;;;;;;;;;;24.85;39.79102;102003.6;;;;-78
2022/07/03 18:37:38;;;;;;;;;;;;;;;24.7;39.91699;102006.4;;;;-78
2022/07/03 18:42:38;;;;;;;;;;;;;;;24.54;39.9375;102013;;;;-79
2022/07/03 18:46:13;;;;;;;2.8;0.9;;;;;;;;;;;;;-78
2022/07/03 18:47:41;;;;;;;;;;;;;;;24.36;39.88672;102017.3;;;;-79
2022/07/03 18:52:44;;;;;;;;;;;;;;;24.21;39.89551;102017.7;;;;-78
2022/07/03 18:57:40;;;;;;;;;;;;;;;24.07;39.80273;102016.1;;;;-80
2022/07/03 19:02:40;;;;;;;;;;;;;;;23.87;39.83203;102016.7;;;;-79
2022/07/03 19:07:44;;;;;;;;;;;;;;;23.61;39.99316;102011;;;;-81
2022/07/03 19:12:40;;;;;;;;;;;;;;;23.32;40.11719;102009.2;;;;-76
2022/07/03 19:16:17;;;;;;;3.4;1;;;;;;;;;;;;;-79
2022/07/03 19:17:39;;;;;;;;;;;;;;;23.02;40.52832;102008.3;;;;-79
2022/07/03 19:22:38;;;;;;;;;;;;;;;22.73;40.65234;102016.3;;;;-79
2022/07/03 19:27:42;;;;;;;;;;;;;;;22.44;40.86621;102016.1;;;;-78
2022/07/03 19:32:38;;;;;;;;;;;;;;;22.13;41.25195;102022.3;;;;-79
2022/07/03 19:37:39;;;;;;;;;;;;;;;21.82;41.87793;102020.5;;;;-78
2022/07/03 19:42:39;;;;;;;;;;;;;;;21.55;42.35742;102031.2;;;;-76
2022/07/03 19:46:17;;;;;;;3;0.9;;;;;;;;;;;;;-76
2022/07/03 19:47:38;;;;;;;;;;;;;;;21.29;42.88281;102029.3;;;;-77
2022/07/03 19:52:38;;;;;;;;;;;;;;;21.04;43.41992;102035.1;;;;-78
2022/07/03 19:57:38;;;;;;;;;;;;;;;20.8;44.20898;102037;;;;-78
2022/07/03 20:02:38;;;;;;;;;;;;;;;20.56;44.73535;102040.3;;;;-78
2022/07/03 20:07:44;;;;;;;;;;;;;;;20.35;45;102044.3;;;;-80
2022/07/03 20:12:38;;;;;;;;;;;;;;;20.16;45.50586;102053.3;;;;-79
2022/07/03 20:16:19;;;;;;;3;1.1;;;;;;;;;;;;;-79
2022/07/03 20:17:38;;;;;;;;;;;;;;;19.95;45.80469;102051.8;;;;-79
2022/07/03 20:22:38;;;;;;;;;;;;;;;19.76;46.24121;102053.7;;;;-77
2022/07/03 20:27:38;;;;;;;;;;;;;;;19.57;46.64453;102057.5;;;;-78
2022/07/03 20:32:38;;;;;;;;;;;;;;;19.39;46.78516;102057.2;;;;-77
2022/07/03 20:37:38;;;;;;;;;;;;;;;19.24;47.2832;102057.8;;;;-78
2022/07/03 20:42:38;;;;;;;;;;;;;;;19.1;47.29004;102057.8;;;;-78
2022/07/03 20:46:22;;;;;;;5.8;1;;;;;;;;;;;;;-76
2022/07/03 20:47:38;;;;;;;;;;;;;;;18.94;47.5459;102060.6;;;;-78
2022/07/03 20:52:50;;;;;;;;;;;;;;;18.79;47.76953;102059.1;;;;-77
2022/07/03 20:57:38;;;;;;;;;;;;;;;18.67;47.9043;102069.5;;;;-77
2022/07/03 21:02:38;;;;;;;;;;;;;;;18.55;48.24414;102074.3;;;;-79
2022/07/03 21:07:38;;;;;;;;;;;;;;;18.45;48.34766;102076.7;;;;-77
2022/07/03 21:12:38;;;;;;;;;;;;;;;18.32;48.65234;102083.3;;;;-78
2022/07/03 21:16:24;;;;;;;2.3;1.1;;;;;;;;;;;;;-78
2022/07/03 21:17:38;;;;;;;;;;;;;;;18.22;48.95801;102089.7;;;;-78
2022/07/03 21:22:48;;;;;;;;;;;;;;;18.11;48.82129;102086;;;;-81
2022/07/03 21:27:40;;;;;;;;;;;;;;;18.01;49.02539;102088.4;;;;-83
2022/07/03 21:32:42;;;;;;;;;;;;;;;17.91;49.31055;102089.8;;;;-83
2022/07/03 21:37:44;;;;;;;;;;;;;;;17.83;49.5293;102087.8;;;;-85
2022/07/03 21:42:51;;;;;;;;;;;;;;;17.75;49.26953;102084.8;;;;-83
2022/07/03 21:46:29;;;;;;;3.4;1.2;;;;;;;;;;;;;-82
2022/07/03 21:47:42;;;;;;;;;;;;;;;17.67;49.71387;102086.9;;;;-83
2022/07/03 21:52:45;;;;;;;;;;;;;;;17.61;49.65137;102087.7;;;;-83
2022/07/03 21:57:44;;;;;;;;;;;;;;;17.53;49.8584;102087.1;;;;-85
2022/07/03 22:02:46;;;;;;;;;;;;;;;17.46;49.90723;102085.8;;;;-82
2022/07/03 22:07:39;;;;;;;;;;;;;;;17.4;50.07129;102083.6;;;;-84
2022/07/03 22:12:49;;;;;;;;;;;;;;;17.33;50.09668;102083.9;;;;-82
2022/07/03 22:16:32;;;;;;;4.4;1.3;;;;;;;;;;;;;-82
2022/07/03 22:17:45;;;;;;;;;;;;;;;17.24;50.22168;102080.9;;;;-83
2022/07/03 22:22:45;;;;;;;;;;;;;;;17.2;50.31934;102077.5;;;;-82
2022/07/03 22:27:39;;;;;;;;;;;;;;;17.11;50.49121;102079.1;;;;-81
2022/07/03 22:28:02;;;;;;;;;;;;;;;17.34;50.34766;102075.1;;;;-83
2022/07/03 22:30:36;;;;;;;;;;;;;;;17.06;50.33789;102078.2;;;;-84
2022/07/03 22:35:56;;;;;;;;;;;;;;;17;50.6377;102076.9;;;;-85
2022/07/03 22:40:47;;;;;;;;;;;;;;;16.95;50.71094;102080.8;;;;-84
2022/07/03 22:45:47;;;;;;;;;;;;;;;16.88;50.86035;102083.8;;;;-83
2022/07/03 22:46:30;;;;;;;2.9;1.2;;;;;;;;;;;;;-83
2022/07/03 22:50:39;;;;;;;;;;;;;;;16.79;51.71094;102083.2;;;;-83
2022/07/03 22:55:48;;;;;;;;;;;;;;;16.72;51.64648;102079.3;;;;-82
2022/07/03 23:00:44;;;;;;;;;;;;;;;16.68;51.7666;102082.2;;;;-82
2022/07/03 23:05:36;;;;;;;;;;;;;;;16.6;51.50879;102074.6;;;;-83
2022/07/03 23:10:38;;;;;;;;;;;;;;;16.56;51.79688;102076.1;;;;-80
2022/07/03 23:15:42;;;;;;;;;;;;;;;16.53;51.78223;102071.3;;;;-84
2022/07/03 23:16:32;;;;;;;3.5;1.3;;;;;;;;;;;;;-82
2022/07/03 23:20:37;;;;;;;;;;;;;;;16.5;52.05078;102070;;;;-83
2022/07/03 23:25:53;;;;;;;;;;;;;;;;;;;;;
2022/07/03 23:30:51;;;;;;;;;;;;;;;16.47;51.71875;102063.6;;;;-83
2022/07/03 23:35:51;;;;;;;;;;;;;;;16.41;52.11914;102059.9;;;;-83
2022/07/03 23:40:36;;;;;;;;;;;;;;;16.39;52.02539;102057.1;;;;-83
2022/07/03 23:45:36;;;;;;;;;;;;;;;16.35;52.21387;102051.6;;;;-83
2022/07/03 23:46:36;;;;;;;3.2;1.3;;;;;;;;;;;;;-81
2022/07/03 23:50:41;;;;;;;;;;;;;;;16.31;51.83594;102054.8;;;;-81
2022/07/03 23:55:40;;;;;;;;;;;;;;;16.25;52.20313;102050.1;;;;-83
